createdAt,value
2022-11-07T00:01:23.460Z,23.43
2022-11-07T00:03:53.698Z,21.83
2022-11-07T00:06:20.386Z,28.00
2022-11-07T00:08:47.028Z,25.77
2022-11-07T00:11:13.689Z,24.80
2022-11-07T00:13:40.315Z,24.50
2022-11-07T00:16:08.977Z,25.07
2022-11-07T00:18:35.948Z,26.50
2022-11-07T00:21:03.762Z,21.50
2022-11-07T00:23:30.651Z,21.27
2022-11-07T00:26:05.434Z,21.37
2022-11-07T00:28:39.899Z,24.43
2022-11-07T00:31:08.085Z,30.13
2022-11-07T00:33:35.254Z,34.53
2022-11-07T00:36:02.488Z,26.00
2022-11-07T00:38:29.108Z,33.60
2022-11-07T00:40:56.287Z,22.87
2022-11-07T00:43:23.866Z,22.53
2022-11-07T00:45:50.665Z,28.87
2022-11-07T00:48:18.078Z,24.33
2022-11-07T00:50:44.657Z,19.43
2022-11-07T00:53:11.440Z,23.73
2022-11-07T00:55:38.274Z,22.80
2022-11-07T00:58:08.656Z,23.70
2022-11-07T01:00:39.289Z,22.43
2022-11-07T01:03:24.176Z,22.90
2022-11-07T01:06:02.419Z,20.87
2022-11-07T01:08:29.432Z,22.00
2022-11-07T01:10:56.331Z,25.07
2022-11-07T01:13:24.483Z,18.60
2022-11-07T01:15:51.995Z,23.23
2022-11-07T01:18:18.665Z,23.67
2022-11-07T01:20:45.365Z,19.67
2022-11-07T01:23:12.229Z,24.13
2022-11-07T01:25:40.014Z,18.00
2022-11-07T01:28:07.418Z,20.33
2022-11-07T01:30:37.545Z,20.20
2022-11-07T01:33:04.349Z,19.23
2022-11-07T01:35:32.990Z,21.67
2022-11-07T01:37:59.653Z,20.90
2022-11-07T01:40:26.631Z,19.20
2022-11-07T01:42:53.305Z,25.17
2022-11-07T01:45:24.143Z,20.93
2022-11-07T01:47:53.325Z,22.90
2022-11-07T01:50:21.379Z,24.07
2022-11-07T01:52:52.432Z,24.57
2022-11-07T01:55:27.382Z,26.40
2022-11-07T01:58:08.360Z,22.20
2022-11-07T02:00:35.714Z,22.70
2022-11-07T02:03:11.781Z,26.93
2022-11-07T02:05:44.346Z,32.00
2022-11-07T02:08:14.091Z,25.57
2022-11-07T02:10:42.016Z,22.13
2022-11-07T02:13:09.268Z,21.43
2022-11-07T02:15:36.854Z,24.97
2022-11-07T02:18:03.874Z,20.77
2022-11-07T02:20:30.511Z,20.37
2022-11-07T02:23:26.678Z,20.47
2022-11-07T02:25:54.332Z,20.63
2022-11-07T02:28:23.837Z,23.73
2022-11-07T02:30:50.471Z,22.07
2022-11-07T02:33:21.742Z,22.93
2022-11-07T02:35:51.076Z,19.90
2022-11-07T02:38:22.676Z,18.97
2022-11-07T02:40:58.514Z,17.37
2022-11-07T02:43:29.415Z,20.57
2022-11-07T02:45:59.039Z,15.97
2022-11-07T02:48:29.999Z,21.23
2022-11-07T02:50:56.904Z,17.40
2022-11-07T02:53:23.927Z,14.83
2022-11-07T02:55:50.595Z,22.00
2022-11-07T02:58:17.404Z,14.13
2022-11-07T03:00:44.062Z,19.23
2022-11-07T03:03:10.814Z,14.60
2022-11-07T03:05:37.648Z,11.73
2022-11-07T03:08:04.516Z,16.07
2022-11-07T03:10:31.173Z,17.43
2022-11-07T03:12:57.734Z,16.80
2022-11-07T03:15:24.375Z,17.17
2022-11-07T03:17:51.006Z,13.77
2022-11-07T03:20:17.616Z,16.70
2022-11-07T03:22:44.242Z,14.00
2022-11-07T03:25:10.885Z,14.83
2022-11-07T03:27:46.467Z,20.83
2022-11-07T03:30:13.738Z,12.23
2022-11-07T03:32:40.427Z,14.77
2022-11-07T03:35:07.723Z,13.30
2022-11-07T03:37:34.402Z,11.20
2022-11-07T03:40:01.014Z,12.53
2022-11-07T03:42:27.718Z,11.80
2022-11-07T03:44:54.291Z,17.20
2022-11-07T03:47:20.922Z,13.57
2022-11-07T03:49:47.596Z,19.80
2022-11-07T03:52:14.211Z,12.93
2022-11-07T03:54:40.841Z,14.47
2022-11-07T03:57:07.505Z,12.93
2022-11-07T03:59:34.144Z,14.03
2022-11-07T04:02:00.830Z,12.23
2022-11-07T04:04:27.477Z,14.80
2022-11-07T04:06:55.284Z,18.70
2022-11-07T04:09:21.957Z,10.03
2022-11-07T04:12:07.389Z,12.53
2022-11-07T04:14:53.914Z,15.90
2022-11-07T04:17:20.793Z,13.30
2022-11-07T04:19:50.057Z,18.97
2022-11-07T04:22:17.271Z,11.40
2022-11-07T04:24:46.095Z,14.33
2022-11-07T04:27:33.329Z,16.07
2022-11-07T04:30:21.620Z,12.40
2022-11-07T04:32:50.434Z,15.70
2022-11-07T04:35:17.975Z,11.50
2022-11-07T04:37:47.947Z,13.80
2022-11-07T04:40:16.111Z,14.57
2022-11-07T04:42:43.340Z,14.67
2022-11-07T04:45:10.926Z,17.40
2022-11-07T04:47:40.347Z,13.43
2022-11-07T04:50:09.945Z,14.60
2022-11-07T04:52:37.018Z,13.70
2022-11-07T04:55:04.035Z,11.77
2022-11-07T04:57:30.701Z,18.53
2022-11-07T04:59:57.400Z,15.80
2022-11-07T05:02:27.910Z,12.13
2022-11-07T05:04:54.606Z,13.33
2022-11-07T05:07:21.624Z,15.57
2022-11-07T05:09:48.337Z,11.27
2022-11-07T05:12:18.121Z,12.47
2022-11-07T05:14:44.722Z,13.87
2022-11-07T05:17:15.265Z,14.23
2022-11-07T05:19:44.847Z,17.93
2022-11-07T05:22:30.973Z,19.30
2022-11-07T05:24:58.171Z,18.83
2022-11-07T05:27:25.219Z,15.17
2022-11-07T05:29:52.058Z,15.67
2022-11-07T05:32:19.129Z,18.80
2022-11-07T05:34:45.793Z,20.30
2022-11-07T05:37:13.550Z,16.53
2022-11-07T05:39:40.097Z,16.10
2022-11-07T05:42:07.526Z,15.40
2022-11-07T05:44:34.204Z,16.17
2022-11-07T05:47:01.614Z,20.30
2022-11-07T05:49:28.512Z,16.70
2022-11-07T05:51:55.455Z,16.83
2022-11-07T05:54:22.137Z,16.53
2022-11-07T05:56:48.730Z,17.50
2022-11-07T05:59:15.459Z,20.47
2022-11-07T06:01:42.274Z,17.33
2022-11-07T06:04:09.265Z,19.13
2022-11-07T06:06:36.024Z,18.53
2022-11-07T06:09:02.912Z,15.53
2022-11-07T06:11:30.815Z,15.17
2022-11-07T06:13:57.384Z,17.67
2022-11-07T06:16:24.886Z,16.37
2022-11-07T06:18:51.500Z,20.53
2022-11-07T06:21:18.069Z,17.83
2022-11-07T06:23:44.745Z,17.87
2022-11-07T06:26:11.329Z,16.03
2022-11-07T06:28:38.162Z,18.90
2022-11-07T06:31:05.352Z,18.43
2022-11-07T06:33:32.527Z,18.00
2022-11-07T06:36:11.414Z,27.87
2022-11-07T06:38:39.335Z,21.40
2022-11-07T06:41:14.525Z,25.13
2022-11-07T06:43:41.550Z,21.43
2022-11-07T06:46:11.968Z,26.33
2022-11-07T06:48:39.326Z,21.47
2022-11-07T06:51:07.803Z,22.30
2022-11-07T06:53:34.460Z,20.13
2022-11-07T06:56:02.649Z,21.50
2022-11-07T06:58:29.763Z,25.23
2022-11-07T07:01:04.755Z,28.93
2022-11-07T07:03:31.612Z,21.77
2022-11-07T07:06:02.937Z,29.13
2022-11-07T07:08:30.264Z,22.70
2022-11-07T07:10:57.218Z,22.33
2022-11-07T07:13:23.926Z,31.03
2022-11-07T07:15:55.136Z,32.93
2022-11-07T07:18:22.710Z,37.10
2022-11-07T07:20:50.290Z,27.77
2022-11-07T07:23:18.457Z,28.77
2022-11-07T07:25:46.582Z,28.03
2022-11-07T07:28:13.429Z,34.17
2022-11-07T07:30:40.010Z,24.73
2022-11-07T07:33:06.631Z,29.93
2022-11-07T07:35:33.785Z,40.63
2022-11-07T07:38:00.402Z,34.10
2022-11-07T07:40:27.044Z,30.27
2022-11-07T07:42:53.701Z,29.33
2022-11-07T07:45:20.412Z,30.77
2022-11-07T07:47:47.078Z,31.67
2022-11-07T07:50:14.067Z,28.10
2022-11-07T07:52:41.086Z,25.70
2022-11-07T07:55:09.454Z,29.97
2022-11-07T07:57:43.291Z,32.80
2022-11-07T08:00:12.129Z,28.97
2022-11-07T08:02:39.265Z,27.23
2022-11-07T08:05:06.490Z,23.90
2022-11-07T08:07:33.053Z,27.37
2022-11-07T08:10:09.797Z,26.57
2022-11-07T08:12:51.953Z,23.37
2022-11-07T08:15:20.309Z,28.20
2022-11-07T08:17:47.038Z,27.93
2022-11-07T08:20:15.864Z,32.10
2022-11-07T08:22:42.581Z,28.03
2022-11-07T08:25:11.558Z,27.53
2022-11-07T08:27:38.538Z,31.03
2022-11-07T08:30:07.484Z,27.20
2022-11-07T08:32:34.457Z,27.57
2022-11-07T08:35:01.167Z,30.27
2022-11-07T08:37:27.726Z,26.70
2022-11-07T08:39:54.290Z,27.33
2022-11-07T08:42:20.932Z,31.67
2022-11-07T08:44:47.481Z,22.97
2022-11-07T08:47:14.122Z,27.80
2022-11-07T08:49:40.732Z,26.83
2022-11-07T08:52:07.550Z,34.83
2022-11-07T08:54:34.248Z,24.17
2022-11-07T08:57:00.971Z,22.90
2022-11-07T08:59:29.348Z,25.03
2022-11-07T09:02:38.900Z,28.43
2022-11-07T09:04:43.080Z,29.97
2022-11-07T09:07:09.822Z,27.57
2022-11-07T09:09:36.540Z,24.70
2022-11-07T09:12:03.388Z,27.30
2022-11-07T09:14:30.194Z,23.13
2022-11-07T09:16:58.298Z,19.83
2022-11-07T09:19:24.997Z,23.37
2022-11-07T09:21:51.723Z,25.10
2022-11-07T09:24:18.538Z,20.93
2022-11-07T09:26:45.268Z,19.07
2022-11-07T09:29:11.964Z,25.27
2022-11-07T09:31:38.679Z,18.07
2022-11-07T09:34:07.496Z,18.23
2022-11-07T09:36:34.226Z,16.60
2022-11-07T09:39:01.265Z,17.07
2022-11-07T09:41:36.951Z,26.43
2022-11-07T09:44:37.340Z,19.87
2022-11-07T09:47:14.743Z,18.60
2022-11-07T09:49:46.607Z,20.73
2022-11-07T09:52:38.670Z,15.10
2022-11-07T09:55:20.512Z,21.00
2022-11-07T09:57:49.238Z,22.17
2022-11-07T10:00:23.482Z,17.70
2022-11-07T10:02:54.583Z,16.33
2022-11-07T10:05:27.308Z,17.27
2022-11-07T10:08:16.390Z,20.23
2022-11-07T10:10:58.079Z,18.30
2022-11-07T10:16:42.026Z,17.97
2022-11-07T10:19:08.688Z,22.63
2022-11-07T10:22:05.895Z,25.47
2022-11-07T10:25:11.200Z,16.10
2022-11-07T10:27:39.605Z,17.97
2022-11-07T10:30:19.967Z,23.15
2022-11-07T10:32:49.736Z,25.83
2022-11-07T10:35:48.637Z,19.93
2022-11-07T10:38:22.191Z,19.70
2022-11-07T10:40:50.576Z,14.73
2022-11-07T10:43:35.318Z,24.47
2022-11-07T10:46:11.317Z,22.70
2022-11-07T10:48:38.061Z,22.97
2022-11-07T10:51:04.864Z,17.93
2022-11-07T10:53:31.657Z,21.53
2022-11-07T10:55:59.067Z,20.27
2022-11-07T10:58:29.547Z,17.00
2022-11-07T11:01:02.478Z,17.03
2022-11-07T11:03:43.617Z,17.70
2022-11-07T11:06:17.921Z,21.03
2022-11-07T11:08:46.878Z,16.10
2022-11-07T11:11:32.892Z,18.30
2022-11-07T11:14:10.957Z,16.63
2022-11-07T11:16:40.220Z,21.27
2022-11-07T11:19:25.840Z,17.97
2022-11-07T11:21:56.113Z,20.23
2022-11-07T11:24:30.260Z,19.03
2022-11-07T11:27:04.996Z,18.47
2022-11-07T11:29:46.614Z,21.47
2022-11-07T11:32:35.517Z,23.73
2022-11-07T11:35:14.508Z,19.60
2022-11-07T11:37:45.654Z,17.67
2022-11-07T11:40:17.780Z,20.07
2022-11-07T11:43:04.293Z,15.27
2022-11-07T11:45:42.767Z,19.13
2022-11-07T11:48:24.732Z,21.73
2022-11-07T11:50:58.426Z,21.93
2022-11-07T11:53:25.203Z,17.90
2022-11-07T11:56:07.338Z,20.13
2022-11-07T11:58:59.995Z,16.93
2022-11-07T12:02:00.264Z,17.60
2022-11-07T12:04:54.733Z,18.53
2022-11-07T12:07:34.084Z,18.13
2022-11-07T12:10:07.977Z,17.50
2022-11-07T12:12:37.450Z,20.80
2022-11-07T12:15:22.064Z,19.13
2022-11-07T12:17:56.463Z,17.13
2022-11-07T12:20:25.830Z,23.33
2022-11-07T12:23:25.140Z,23.17
2022-11-07T12:26:18.204Z,21.60
2022-11-07T12:29:37.383Z,18.80
2022-11-07T12:32:06.925Z,17.57
2022-11-07T12:34:52.337Z,19.07
2022-11-07T12:38:00.496Z,18.37
2022-11-07T12:40:37.348Z,19.07
2022-11-07T12:43:24.856Z,17.50
2022-11-07T12:46:05.414Z,16.07
2022-11-07T12:48:53.206Z,20.77
2022-11-07T12:51:45.736Z,18.53
2022-11-07T12:54:33.814Z,19.40
2022-11-07T12:57:06.118Z,18.57
2022-11-07T12:59:45.002Z,25.10
2022-11-07T13:02:52.909Z,23.60
2022-11-07T13:05:22.358Z,15.87
2022-11-07T13:07:53.785Z,18.87
2022-11-07T13:10:56.287Z,16.67
2022-11-07T13:13:29.012Z,19.40
2022-11-07T13:16:20.089Z,18.07
2022-11-07T13:18:46.875Z,16.93
2022-11-07T13:21:13.605Z,25.73
2022-11-07T13:23:40.578Z,14.07
2022-11-07T13:26:32.431Z,21.10
2022-11-07T13:28:59.893Z,19.13
2022-11-07T13:31:32.522Z,20.37
2022-11-07T13:34:17.819Z,18.67
2022-11-07T13:36:46.125Z,18.17
2022-11-07T13:39:14.785Z,29.77
2022-11-07T13:41:44.711Z,24.73
2022-11-07T13:44:28.036Z,21.50
2022-11-07T13:46:57.413Z,18.27
2022-11-07T13:49:44.609Z,21.60
2022-11-07T13:52:21.116Z,18.37
2022-11-07T13:54:57.297Z,19.63
2022-11-07T13:57:31.698Z,19.70
2022-11-07T14:00:05.201Z,22.20
2022-11-07T14:02:35.466Z,24.07
2022-11-07T14:05:21.291Z,23.13
2022-11-07T14:07:52.471Z,19.10
2022-11-07T14:10:47.263Z,22.37
2022-11-07T14:13:39.644Z,20.90
2022-11-07T14:16:21.798Z,21.93
2022-11-07T14:19:02.305Z,22.67
2022-11-07T14:21:37.443Z,21.33
2022-11-07T14:24:28.913Z,20.13
2022-11-07T14:27:11.575Z,23.53
2022-11-07T14:29:38.291Z,19.53
2022-11-07T14:32:07.469Z,27.67
2022-11-07T14:34:36.198Z,27.30
2022-11-07T14:37:06.879Z,21.77
2022-11-07T14:39:33.961Z,17.07
2022-11-07T14:42:03.161Z,19.30
2022-11-07T14:44:47.570Z,24.03
2022-11-07T14:47:20.945Z,19.07
2022-11-07T14:49:50.714Z,22.43
2022-11-07T14:52:19.501Z,18.20
2022-11-07T14:54:47.571Z,22.30
2022-11-07T14:57:14.985Z,17.90
2022-11-07T14:59:42.567Z,25.37
2022-11-07T15:02:12.455Z,22.00
2022-11-07T15:04:47.325Z,26.30
2022-11-07T15:07:33.873Z,30.53
2022-11-07T15:10:14.596Z,21.40
2022-11-07T15:12:52.980Z,24.20
2022-11-07T15:15:21.145Z,21.57
2022-11-07T15:17:51.103Z,18.37
2022-11-07T15:20:24.676Z,20.70
2022-11-07T15:22:51.429Z,29.10
2022-11-07T15:25:26.514Z,23.57
2022-11-07T15:27:53.899Z,29.43
2022-11-07T15:30:34.092Z,28.83
2022-11-07T15:33:00.869Z,28.83
2022-11-07T15:35:43.543Z,34.23
2022-11-07T15:38:20.644Z,39.73
2022-11-07T15:40:47.852Z,25.07
2022-11-07T15:43:15.104Z,24.43
2022-11-07T15:45:42.913Z,26.03
2022-11-07T15:48:16.601Z,24.53
2022-11-07T15:50:45.731Z,17.47
2022-11-07T15:53:18.209Z,32.43
2022-11-07T15:55:45.153Z,28.43
2022-11-07T15:58:15.420Z,23.53
2022-11-07T16:00:47.656Z,28.27
2022-11-07T16:03:16.801Z,34.53
2022-11-07T16:05:48.911Z,26.90
2022-11-07T16:08:21.351Z,31.10
2022-11-07T16:10:54.975Z,23.93
2022-11-07T16:13:21.755Z,27.93
2022-11-07T16:15:55.812Z,34.07
2022-11-07T16:18:22.811Z,33.80
2022-11-07T16:20:50.716Z,25.90
2022-11-07T16:23:20.881Z,28.73
2022-11-07T16:25:50.213Z,28.70
2022-11-07T16:28:17.224Z,31.37
2022-11-07T16:30:44.239Z,26.07
2022-11-07T16:33:12.714Z,29.50
2022-11-07T16:35:40.811Z,24.13
2022-11-07T16:38:16.514Z,25.80
2022-11-07T16:40:43.772Z,32.27
2022-11-07T16:43:10.933Z,36.07
2022-11-07T16:45:43.604Z,38.93
2022-11-07T16:48:18.989Z,30.73
2022-11-07T16:50:46.436Z,34.53
2022-11-07T16:53:13.732Z,29.37
2022-11-07T16:55:45.535Z,35.27
2022-11-07T16:58:29.533Z,33.77
2022-11-07T17:00:59.540Z,31.83
2022-11-07T17:03:26.624Z,32.70
2022-11-07T17:05:55.249Z,37.93
2022-11-07T17:08:26.805Z,29.73
2022-11-07T17:10:53.783Z,29.63
2022-11-07T17:13:22.376Z,35.07
2022-11-07T17:15:49.920Z,41.43
2022-11-07T17:18:21.562Z,31.37
2022-11-07T17:20:51.716Z,30.97
2022-11-07T17:23:18.920Z,34.17
2022-11-07T17:25:50.884Z,36.50
2022-11-07T17:28:17.878Z,28.63
2022-11-07T17:30:52.173Z,28.63
2022-11-07T17:33:18.897Z,32.37
2022-11-07T17:36:02.622Z,30.67
2022-11-07T17:38:40.945Z,22.87
2022-11-07T17:41:17.857Z,29.07
2022-11-07T17:43:50.213Z,37.60
2022-11-07T17:46:22.287Z,34.67
2022-11-07T17:49:17.214Z,31.30
2022-11-07T17:51:44.429Z,33.67
2022-11-07T17:54:13.281Z,37.17
2022-11-07T17:56:41.626Z,36.63
2022-11-07T17:59:12.898Z,33.37
2022-11-07T18:01:40.779Z,32.30
2022-11-07T18:04:09.599Z,36.63
2022-11-07T18:07:11.972Z,39.00
2022-11-07T18:09:40.479Z,28.23
2022-11-07T18:12:19.448Z,30.10
2022-11-07T18:14:50.426Z,27.70
2022-11-07T18:17:17.136Z,36.00
2022-11-07T18:19:43.978Z,30.83
2022-11-07T18:22:10.695Z,29.77
2022-11-07T18:24:37.939Z,27.87
2022-11-07T18:27:09.296Z,32.33
2022-11-07T18:29:37.127Z,29.93
2022-11-07T18:32:03.898Z,28.73
2022-11-07T18:34:51.210Z,29.43
2022-11-07T18:37:18.862Z,30.80
2022-11-07T18:39:45.578Z,30.20
2022-11-07T18:42:12.186Z,32.97
2022-11-07T18:44:38.975Z,29.87
2022-11-07T18:47:05.651Z,34.33
2022-11-07T18:49:32.291Z,38.83
2022-11-07T18:51:58.896Z,37.53
2022-11-07T18:54:26.335Z,33.87
2022-11-07T18:56:52.972Z,38.73
2022-11-07T18:59:19.673Z,38.07
2022-11-07T19:01:46.538Z,30.67
2022-11-07T19:04:13.226Z,34.80
2022-11-07T19:06:55.773Z,40.83
2022-11-07T19:09:28.935Z,35.00
2022-11-07T19:11:56.750Z,51.30
2022-11-07T19:14:23.920Z,33.40
2022-11-07T19:16:50.614Z,39.77
2022-11-07T19:19:17.306Z,44.20
2022-11-07T19:21:44.230Z,43.73
2022-11-07T19:24:12.805Z,38.57
2022-11-07T19:26:39.662Z,36.57
2022-11-07T19:29:09.941Z,31.37
2022-11-07T19:31:37.284Z,37.07
2022-11-07T19:34:04.484Z,31.57
2022-11-07T19:36:31.637Z,33.50
2022-11-07T19:38:58.422Z,34.23
2022-11-07T19:41:25.000Z,30.17
2022-11-07T19:43:51.658Z,29.27
2022-11-07T19:46:21.241Z,30.80
2022-11-07T19:48:49.084Z,36.63
2022-11-07T19:51:21.539Z,33.00
2022-11-07T19:53:56.607Z,33.37
2022-11-07T19:56:25.114Z,36.57
2022-11-07T19:58:51.830Z,35.90
2022-11-07T20:01:21.077Z,37.37
2022-11-07T20:03:50.248Z,35.97
2022-11-07T20:06:20.323Z,34.67
2022-11-07T20:08:47.651Z,32.80
2022-11-07T20:11:15.824Z,34.23
2022-11-07T20:13:43.410Z,34.20
2022-11-07T20:16:10.578Z,34.17
2022-11-07T20:18:38.425Z,33.10
2022-11-07T20:21:12.918Z,35.00
2022-11-07T20:23:43.417Z,35.90
2022-11-07T20:26:45.402Z,30.90
2022-11-07T20:29:13.723Z,30.00
2022-11-07T20:31:41.794Z,31.50
2022-11-07T20:34:08.713Z,33.20
2022-11-07T20:37:05.662Z,37.10
2022-11-07T20:39:32.301Z,33.10
2022-11-07T20:41:59.100Z,31.77
2022-11-07T20:44:28.179Z,27.90
2022-11-07T20:46:56.628Z,27.83
2022-11-07T20:49:23.286Z,29.73
2022-11-07T20:51:52.002Z,25.67
2022-11-07T20:54:20.812Z,30.37
2022-11-07T20:56:47.527Z,31.20
2022-11-07T20:59:14.127Z,25.10
2022-11-07T21:01:40.866Z,29.37
2022-11-07T21:05:03.336Z,31.77
2022-11-07T21:07:29.611Z,32.67
2022-11-07T21:10:15.304Z,30.40
2022-11-07T21:12:42.901Z,31.43
2022-11-07T21:15:10.647Z,29.63
2022-11-07T21:17:40.202Z,30.87
2022-11-07T21:20:07.579Z,35.10
2022-11-07T21:22:36.952Z,28.17
2022-11-07T21:25:12.462Z,35.83
2022-11-07T21:27:39.033Z,30.87
2022-11-07T21:30:06.812Z,37.17
2022-11-07T21:32:34.551Z,41.40
2022-11-07T21:35:01.314Z,37.93
2022-11-07T21:37:31.931Z,43.50
2022-11-07T21:39:58.504Z,42.80
2022-11-07T21:42:27.796Z,45.33
2022-11-07T21:44:57.239Z,44.30
2022-11-07T21:47:24.010Z,43.67
2022-11-07T21:49:50.671Z,30.80
2022-11-07T21:52:17.364Z,34.77
2022-11-07T21:54:47.379Z,35.17
2022-11-07T21:57:14.009Z,37.70
2022-11-07T21:59:40.621Z,35.40
2022-11-07T22:02:26.361Z,35.70
2022-11-07T22:04:53.098Z,33.20
2022-11-07T22:07:19.696Z,36.80
2022-11-07T22:09:46.402Z,35.23
2022-11-07T22:12:13.396Z,32.73
2022-11-07T22:14:39.969Z,34.03
2022-11-07T22:17:06.655Z,33.73
2022-11-07T22:19:36.091Z,33.93
2022-11-07T22:22:03.696Z,31.97
2022-11-07T22:24:30.770Z,36.40
2022-11-07T22:26:57.434Z,33.30
2022-11-07T22:29:24.121Z,32.47
2022-11-07T22:31:50.716Z,36.77
2022-11-07T22:34:17.417Z,36.37
2022-11-07T22:36:44.027Z,33.93
2022-11-07T22:39:10.630Z,35.50
2022-11-07T22:41:37.332Z,30.97
2022-11-07T22:44:04.091Z,42.83
2022-11-07T22:46:31.333Z,40.13
2022-11-07T22:48:59.576Z,37.17
2022-11-07T22:51:31.974Z,38.03
2022-11-07T22:54:05.932Z,36.33
2022-11-07T22:56:35.295Z,33.83
2022-11-07T22:59:02.652Z,33.30
2022-11-07T23:01:37.178Z,32.43
2022-11-07T23:04:04.911Z,35.73
2022-11-07T23:06:31.940Z,42.67
2022-11-07T23:08:59.756Z,34.27
2022-11-07T23:11:51.309Z,35.90
2022-11-07T23:14:21.323Z,35.30
2022-11-07T23:16:50.778Z,27.47
2022-11-07T23:19:19.887Z,28.90
2022-11-07T23:21:46.808Z,31.47
2022-11-07T23:24:14.252Z,30.13
2022-11-07T23:26:41.180Z,34.60
2022-11-07T23:29:13.494Z,36.40
2022-11-07T23:31:41.519Z,32.03
2022-11-07T23:34:08.387Z,36.93
2022-11-07T23:36:35.381Z,29.47
2022-11-07T23:39:07.311Z,29.70
2022-11-07T23:41:34.866Z,31.57
2022-11-07T23:44:02.021Z,33.13
2022-11-07T23:46:47.517Z,36.27
2022-11-07T23:49:32.788Z,32.77
2022-11-07T23:51:59.408Z,27.47
2022-11-07T23:54:44.873Z,31.17
2022-11-07T23:57:11.503Z,31.20
2022-11-07T23:59:56.715Z,30.60
